createdAt,value
2019-01-17T00:00:14.859Z,99624.22
2019-01-17T00:05:18.922Z,99616.09
2019-01-17T00:10:22.908Z,99614.74
2019-01-17T00:15:26.971Z,99609.28
2019-01-17T00:20:31.021Z,99608.50
2019-01-17T00:25:35.033Z,99611.58
2019-01-17T00:30:39.098Z,99605.66
2019-01-17T00:35:43.411Z,99581.35
2019-01-17T00:40:47.455Z,99584.13
2019-01-17T00:45:51.490Z,99587.11
2019-01-17T00:50:55.817Z,99565.43
2019-01-17T00:55:59.831Z,99561.73
2019-01-17T01:01:03.954Z,99564.38
2019-01-17T01:06:19.520Z,99556.27
2019-01-17T01:11:23.572Z,99549.11
2019-01-17T01:16:33.908Z,99555.39
2019-01-17T01:21:37.884Z,99568.91
2019-01-17T01:26:42.255Z,99561.43
2019-01-17T01:31:46.447Z,99542.16
2019-01-17T01:36:50.706Z,99543.37
2019-01-17T01:41:55.603Z,99543.94
2019-01-17T01:46:59.705Z,99536.84
2019-01-17T01:52:03.798Z,99527.75
2019-01-17T01:57:07.858Z,99536.61
2019-01-17T02:02:11.904Z,99533.90
2019-01-17T02:07:15.941Z,99537.20
2019-01-17T02:12:20.032Z,99531.17
2019-01-17T02:17:24.070Z,99526.34
2019-01-17T02:22:28.141Z,99525.62
2019-01-17T02:27:32.190Z,99516.42
2019-01-17T02:32:36.474Z,99511.45
2019-01-17T02:37:40.525Z,99500.34
2019-01-17T02:42:44.600Z,99487.59
2019-01-17T02:47:48.667Z,99494.41
2019-01-17T02:52:52.712Z,99476.05
2019-01-17T02:57:56.821Z,99485.77
2019-01-17T03:03:00.919Z,99484.45
2019-01-17T03:08:04.997Z,99476.69
2019-01-17T03:13:09.316Z,99466.90
2019-01-17T03:18:13.372Z,99481.16
2019-01-17T03:23:17.380Z,99470.13
2019-01-17T03:28:21.442Z,99476.22
2019-01-17T03:33:25.820Z,99480.73
2019-01-17T03:38:29.849Z,99473.30
2019-01-17T03:43:33.894Z,99476.92
2019-01-17T03:48:37.931Z,99473.45
2019-01-17T03:53:41.971Z,99475.74
2019-01-17T03:58:46.002Z,99473.63
2019-01-17T04:03:50.273Z,99473.98
2019-01-17T04:08:54.359Z,99474.48
2019-01-17T04:13:58.436Z,99469.52
2019-01-17T04:19:03.305Z,99474.81
2019-01-17T04:24:07.355Z,99478.95
2019-01-17T04:29:11.378Z,99470.66
2019-01-17T04:34:15.381Z,99476.99
2019-01-17T04:39:19.426Z,99478.33
2019-01-17T04:44:23.494Z,99478.48
2019-01-17T04:49:27.531Z,99470.04
2019-01-17T04:54:31.549Z,99483.97
2019-01-17T04:59:35.584Z,99474.70
2019-01-17T05:04:39.640Z,99478.68
2019-01-17T05:09:44.263Z,99479.36
2019-01-17T05:14:48.273Z,99475.87
2019-01-17T05:19:52.310Z,99485.16
2019-01-17T05:24:56.407Z,99483.98
2019-01-17T05:30:00.743Z,99483.83
2019-01-17T05:35:05.465Z,99493.79
2019-01-17T05:40:12.664Z,99486.66
2019-01-17T05:45:16.969Z,99485.00
2019-01-17T05:50:20.961Z,99481.70
2019-01-17T05:55:24.943Z,99486.99
2019-01-17T06:00:29.085Z,99487.34
2019-01-17T06:05:33.172Z,99494.45
2019-01-17T06:10:37.218Z,99489.33
2019-01-17T06:15:41.256Z,99499.94
2019-01-17T06:20:45.425Z,99508.22
2019-01-17T06:25:49.592Z,99500.75
2019-01-17T06:30:53.613Z,99500.91
2019-01-17T06:35:57.670Z,99517.16
2019-01-17T06:41:01.707Z,99527.78
2019-01-17T06:46:06.057Z,99523.46
2019-01-17T06:51:10.441Z,99521.33
2019-01-17T06:56:14.748Z,99517.67
2019-01-17T07:01:20.073Z,99525.62
2019-01-17T07:06:25.796Z,99520.33
2019-01-17T07:11:29.870Z,99537.57
2019-01-17T07:16:33.914Z,99556.82
2019-01-17T07:21:37.957Z,99545.03
2019-01-17T07:26:46.591Z,99570.59
2019-01-17T07:31:50.653Z,99576.20
2019-01-17T07:36:54.816Z,99577.89
2019-01-17T07:41:58.838Z,99567.77
2019-01-17T07:47:03.497Z,99577.05
2019-01-17T07:52:07.546Z,99590.48
2019-01-17T07:57:11.890Z,99589.00
2019-01-17T08:02:15.921Z,99603.75
2019-01-17T08:07:19.928Z,99592.14
2019-01-17T08:12:24.799Z,99611.55
2019-01-17T08:17:29.443Z,99613.22
2019-01-17T08:22:34.133Z,99619.36
2019-01-17T08:27:51.224Z,99616.02
2019-01-17T08:32:56.090Z,99620.53
2019-01-17T08:38:00.185Z,99621.01
2019-01-17T08:43:08.370Z,99622.17
2019-01-17T08:48:12.465Z,99627.15
2019-01-17T08:53:16.522Z,99622.17
2019-01-17T08:58:20.549Z,99639.95
2019-01-17T09:03:24.660Z,99644.09
2019-01-17T09:08:28.817Z,99643.95
2019-01-17T09:13:32.858Z,99657.88
2019-01-17T09:18:37.966Z,99649.89
2019-01-17T09:23:42.301Z,99655.54
2019-01-17T09:28:46.386Z,99661.33
2019-01-17T09:33:50.401Z,99673.93
2019-01-17T09:38:54.409Z,99684.89
2019-01-17T09:43:58.830Z,99672.91
2019-01-17T09:49:02.879Z,99679.36
2019-01-17T09:54:06.941Z,99677.66
2019-01-17T09:59:11.414Z,99678.73
2019-01-17T10:04:15.517Z,99674.80
2019-01-17T10:09:19.587Z,99684.93
2019-01-17T10:14:23.827Z,99675.58
2019-01-17T10:20:22.429Z,99672.41
2019-01-17T10:26:04.078Z,99674.95
2019-01-17T10:31:47.620Z,99673.09
2019-01-17T10:37:13.839Z,99663.48
2019-01-17T10:42:43.000Z,99668.20
2019-01-17T10:48:28.314Z,99661.52
2019-01-17T10:54:16.584Z,99656.32
2019-01-17T11:00:10.366Z,99664.02
2019-01-17T11:06:02.987Z,99648.27
2019-01-17T11:11:32.983Z,99647.02
2019-01-17T11:17:02.482Z,99640.95
2019-01-17T11:22:38.880Z,99615.77
2019-01-17T11:28:16.939Z,99624.56
2019-01-17T11:34:14.806Z,99625.20
2019-01-17T11:39:47.460Z,99620.61
2019-01-17T11:45:04.302Z,99621.48
2019-01-17T11:50:25.107Z,99608.73
2019-01-17T11:55:55.207Z,99599.97
2019-01-17T12:01:22.126Z,99599.55
2019-01-17T12:06:26.204Z,99596.09
2019-01-17T12:11:31.183Z,99595.05
2019-01-17T12:16:35.540Z,99590.92
2019-01-17T12:21:42.539Z,99588.41
2019-01-17T12:26:47.547Z,99579.31
2019-01-17T12:31:51.732Z,99577.62
2019-01-17T12:36:55.825Z,99572.19
2019-01-17T12:41:59.906Z,99564.69
2019-01-17T12:47:04.063Z,99555.91
2019-01-17T12:52:08.141Z,99542.72
2019-01-17T12:57:12.397Z,99539.49
2019-01-17T13:02:16.412Z,99531.66
2019-01-17T13:07:20.516Z,99518.83
2019-01-17T13:12:24.586Z,99513.82
2019-01-17T13:17:28.644Z,99508.84
2019-01-17T13:22:32.673Z,99509.94
2019-01-17T13:27:36.810Z,99518.25
2019-01-17T13:32:40.896Z,99513.86
2019-01-17T13:37:45.015Z,99506.08
2019-01-17T13:42:49.301Z,99515.09
2019-01-17T13:47:53.374Z,99504.66
2019-01-17T13:52:57.435Z,99516.66
2019-01-17T13:58:01.486Z,99505.05
2019-01-17T14:03:05.627Z,99505.17
2019-01-17T14:08:09.656Z,99509.70
2019-01-17T14:13:13.757Z,99501.12
2019-01-17T14:18:17.841Z,99502.42
2019-01-17T14:23:22.311Z,99505.59
2019-01-17T14:28:26.329Z,99494.47
2019-01-17T14:33:30.718Z,99499.95
2019-01-17T14:38:34.949Z,99486.52
2019-01-17T14:43:39.007Z,99479.70
2019-01-17T14:48:43.130Z,99482.77
2019-01-17T14:53:47.126Z,99478.02
2019-01-17T14:58:51.165Z,99465.94
2019-01-17T15:03:55.538Z,99468.76
2019-01-17T15:08:59.621Z,99470.41
2019-01-17T15:14:03.728Z,99476.70
2019-01-17T15:19:07.813Z,99480.34
2019-01-17T15:24:11.823Z,99465.45
2019-01-17T15:29:15.831Z,99452.36
2019-01-17T15:34:19.898Z,99448.04
2019-01-17T15:39:24.010Z,99448.55
2019-01-17T15:44:28.143Z,99448.72
2019-01-17T15:49:32.498Z,99453.48
2019-01-17T15:54:36.816Z,99455.16
2019-01-17T15:59:40.964Z,99466.09
2019-01-17T16:04:45.315Z,99446.37
2019-01-17T16:09:49.332Z,99444.89
2019-01-17T16:14:53.543Z,99437.94
2019-01-17T16:19:57.745Z,99429.97
2019-01-17T16:25:02.123Z,99436.27
2019-01-17T16:30:09.783Z,99446.52
2019-01-17T16:35:14.029Z,99449.67
2019-01-17T16:40:18.156Z,99449.17
2019-01-17T16:45:22.937Z,99459.13
2019-01-17T16:50:27.233Z,99452.35
2019-01-17T16:55:31.286Z,99453.00
2019-01-17T17:00:40.621Z,99455.80
2019-01-17T17:05:44.729Z,99458.93
2019-01-17T17:10:48.744Z,99473.63
2019-01-17T17:15:52.786Z,99468.81
2019-01-17T17:20:56.847Z,99471.19
2019-01-17T17:26:00.839Z,99477.73
2019-01-17T17:31:05.054Z,99485.88
2019-01-17T17:36:09.135Z,99482.25
2019-01-17T17:41:13.168Z,99486.91
2019-01-17T17:46:17.233Z,99483.64
2019-01-17T17:51:21.353Z,99493.38
2019-01-17T17:56:25.394Z,99493.18
2019-01-17T18:01:29.839Z,99501.65
2019-01-17T18:06:34.199Z,99513.83
2019-01-17T18:11:38.199Z,99522.67
2019-01-17T18:16:42.413Z,99538.77
2019-01-17T18:21:46.434Z,99542.69
2019-01-17T18:26:51.448Z,99555.03
2019-01-17T18:31:55.595Z,99556.52
2019-01-17T18:37:00.231Z,99564.02
2019-01-17T18:42:04.279Z,99573.75
2019-01-17T18:47:08.299Z,99577.46
2019-01-17T18:52:12.313Z,99589.92
2019-01-17T18:57:16.424Z,99594.58
2019-01-17T19:02:20.782Z,99600.56
2019-01-17T19:07:24.894Z,99616.98
2019-01-17T19:12:30.452Z,99631.56
2019-01-17T19:17:34.773Z,99639.36
2019-01-17T19:22:38.856Z,99650.85
2019-01-17T19:27:45.092Z,99662.21
2019-01-17T19:32:49.578Z,99672.17
2019-01-17T19:37:53.688Z,99684.37
2019-01-17T19:43:04.439Z,99697.93
2019-01-17T19:48:08.939Z,99701.98
2019-01-17T19:53:13.021Z,99709.34
2019-01-17T19:58:17.160Z,99720.34
2019-01-17T20:03:21.311Z,99734.81
2019-01-17T20:08:26.177Z,99736.58
2019-01-17T20:13:30.332Z,99760.53
2019-01-17T20:18:34.396Z,99772.17
2019-01-17T20:23:38.504Z,99766.31
2019-01-17T20:28:43.311Z,99776.31
2019-01-17T20:33:47.730Z,99789.89
2019-01-17T20:38:51.823Z,99792.54
2019-01-17T20:43:56.290Z,99803.06
2019-01-17T20:49:00.368Z,99810.50
2019-01-17T20:54:04.699Z,99817.22
2019-01-17T20:59:08.747Z,99829.12
2019-01-17T21:04:12.790Z,99827.66
2019-01-17T21:09:22.910Z,99825.94
2019-01-17T21:14:27.845Z,99838.34
2019-01-17T21:19:31.851Z,99850.28
2019-01-17T21:24:36.168Z,99856.80
2019-01-17T21:29:40.444Z,99868.09
2019-01-17T21:34:45.262Z,99872.11
2019-01-17T21:39:49.420Z,99893.73
2019-01-17T21:44:54.109Z,99889.23
2019-01-17T21:49:58.171Z,99902.92
2019-01-17T21:55:02.234Z,99897.55
2019-01-17T22:00:09.908Z,99908.23
2019-01-17T22:05:14.050Z,99917.09
2019-01-17T22:10:19.665Z,99919.13
2019-01-17T22:15:24.214Z,99923.56
2019-01-17T22:20:28.566Z,99930.36
2019-01-17T22:25:32.886Z,99941.76
2019-01-17T22:30:41.552Z,99949.61
2019-01-17T22:35:48.410Z,99953.92
2019-01-17T22:40:53.300Z,99960.53
2019-01-17T22:46:00.165Z,99968.95
2019-01-17T22:51:04.614Z,99973.70
2019-01-17T22:56:11.336Z,99971.26
2019-01-17T23:01:25.002Z,99979.97
2019-01-17T23:06:30.180Z,99978.09
2019-01-17T23:11:34.196Z,99989.81
2019-01-17T23:16:38.232Z,100010.66
2019-01-17T23:21:42.301Z,100015.89
2019-01-17T23:26:46.767Z,100002.69
2019-01-17T23:31:51.209Z,100026.27
2019-01-17T23:36:55.237Z,100037.53
2019-01-17T23:41:59.279Z,100037.89
2019-01-17T23:47:04.344Z,100039.02
2019-01-17T23:52:08.996Z,100048.83
2019-01-17T23:57:13.979Z,100043.91
